createdAt,value
2019-05-03T00:00:46.664Z,12.65
2019-05-03T00:03:15.563Z,12.68
2019-05-03T00:05:47.127Z,14.23
2019-05-03T00:08:15.965Z,13.78
2019-05-03T00:10:45.088Z,14.10
2019-05-03T00:13:15.504Z,13.22
2019-05-03T00:16:02.746Z,12.37
2019-05-03T00:18:32.786Z,12.95
2019-05-03T00:21:02.179Z,12.17
2019-05-03T00:23:32.410Z,12.90
2019-05-03T00:26:02.705Z,11.57
2019-05-03T00:28:32.217Z,11.27
2019-05-03T00:31:03.800Z,10.57
2019-05-03T00:33:35.162Z,9.10
2019-05-03T00:36:23.202Z,8.47
2019-05-03T00:39:01.964Z,6.20
2019-05-03T00:41:32.395Z,5.97
2019-05-03T00:44:02.243Z,5.60
2019-05-03T00:46:33.868Z,6.70
2019-05-03T00:49:03.802Z,7.83
2019-05-03T00:51:34.138Z,7.83
2019-05-03T00:54:05.430Z,9.00
2019-05-03T00:56:34.286Z,8.63
2019-05-03T00:59:03.238Z,8.70
2019-05-03T01:01:32.175Z,9.20
2019-05-03T01:04:01.779Z,9.70
2019-05-03T01:06:31.803Z,10.67
2019-05-03T01:09:03.856Z,11.18
2019-05-03T01:11:33.593Z,10.57
2019-05-03T01:14:02.721Z,10.93
2019-05-03T01:16:31.907Z,11.40
2019-05-03T01:19:02.494Z,11.27
2019-05-03T01:21:31.730Z,11.53
2019-05-03T01:24:01.661Z,10.10
2019-05-03T01:26:33.752Z,11.20
2019-05-03T01:29:02.759Z,11.13
2019-05-03T01:31:31.976Z,10.57
2019-05-03T01:34:02.527Z,10.30
2019-05-03T01:36:32.104Z,11.30
2019-05-03T01:39:02.143Z,10.67
2019-05-03T01:41:35.251Z,11.23
2019-05-03T01:44:04.438Z,10.97
2019-05-03T01:46:33.241Z,10.60
2019-05-03T01:49:08.544Z,11.13
2019-05-03T01:51:55.290Z,11.00
2019-05-03T01:54:24.128Z,11.23
2019-05-03T01:56:58.694Z,11.93
2019-05-03T01:59:23.411Z,11.20
2019-05-03T02:02:12.507Z,11.38
2019-05-03T02:04:45.678Z,12.63
2019-05-03T02:07:18.043Z,11.80
2019-05-03T02:09:47.519Z,11.67
2019-05-03T02:12:19.307Z,11.63
2019-05-03T02:14:51.581Z,12.10
2019-05-03T02:17:22.623Z,11.30
2019-05-03T02:19:54.320Z,12.37
2019-05-03T02:22:23.797Z,11.50
2019-05-03T02:24:55.299Z,11.90
2019-05-03T02:27:24.198Z,11.93
2019-05-03T02:29:56.344Z,12.00
2019-05-03T02:32:27.635Z,12.03
2019-05-03T02:34:56.389Z,11.70
2019-05-03T02:37:25.161Z,12.25
2019-05-03T02:39:56.637Z,12.53
2019-05-03T02:42:27.333Z,13.93
2019-05-03T02:44:57.960Z,14.70
2019-05-03T02:47:49.971Z,14.60
2019-05-03T02:50:22.396Z,14.43
2019-05-03T02:52:51.013Z,13.93
2019-05-03T02:55:20.230Z,14.60
2019-05-03T02:57:49.100Z,14.50
2019-05-03T03:00:20.955Z,13.57
2019-05-03T03:02:51.482Z,13.35
2019-05-03T03:05:21.399Z,13.23
2019-05-03T03:07:52.216Z,13.55
2019-05-03T03:10:21.051Z,13.43
2019-05-03T03:12:55.354Z,13.35
2019-05-03T03:15:25.747Z,15.20
2019-05-03T03:17:56.547Z,14.58
2019-05-03T03:20:26.868Z,16.00
2019-05-03T03:22:57.904Z,15.18
2019-05-03T03:25:31.083Z,15.77
2019-05-03T03:28:05.146Z,15.50
2019-05-03T03:31:08.314Z,16.20
2019-05-03T03:33:40.290Z,15.20
2019-05-03T03:36:32.029Z,15.18
2019-05-03T03:38:39.119Z,14.57
2019-05-03T03:41:16.174Z,14.38
2019-05-03T03:43:46.069Z,16.23
2019-05-03T03:46:19.460Z,14.73
2019-05-03T03:48:50.246Z,15.43
2019-05-03T03:51:22.138Z,16.65
2019-05-03T03:53:55.603Z,16.20
2019-05-03T03:56:27.082Z,15.65
2019-05-03T03:58:58.688Z,15.87
2019-05-03T04:01:27.850Z,16.00
2019-05-03T04:03:57.056Z,15.13
2019-05-03T04:06:42.183Z,15.40
2019-05-03T04:09:11.054Z,14.13
2019-05-03T04:11:41.134Z,14.87
2019-05-03T04:14:15.951Z,13.70
2019-05-03T04:17:01.313Z,13.30
2019-05-03T04:19:36.166Z,14.38
2019-05-03T04:22:05.872Z,11.60
2019-05-03T04:24:35.490Z,12.55
2019-05-03T04:46:10.123Z,10.23
2019-05-03T16:30:38.527Z,2.40
2019-05-03T16:33:07.328Z,2.00
2019-05-03T16:35:37.817Z,1.90
2019-05-03T16:38:07.156Z,2.20
2019-05-03T16:40:36.065Z,2.15
2019-05-03T16:43:08.103Z,2.57
2019-05-03T16:45:36.917Z,2.27
2019-05-03T16:48:05.865Z,2.57
2019-05-03T16:50:35.007Z,2.45
2019-05-03T16:53:06.181Z,2.73
2019-05-03T16:55:35.242Z,2.60
2019-05-03T16:58:04.362Z,2.27
2019-05-03T17:00:35.187Z,2.70
2019-05-03T17:03:05.661Z,4.83
2019-05-03T17:05:51.749Z,2.50
2019-05-03T17:08:46.351Z,2.30
2019-05-03T17:11:17.609Z,2.37
2019-05-03T17:13:48.026Z,2.60
2019-05-03T17:16:18.848Z,2.40
2019-05-03T17:18:50.928Z,2.33
2019-05-03T17:21:21.994Z,2.23
2019-05-03T17:23:51.244Z,2.37
2019-05-03T17:26:22.008Z,2.60
2019-05-03T17:28:51.274Z,2.40
2019-05-03T17:31:20.528Z,2.50
2019-05-03T17:33:53.600Z,2.50
2019-05-03T17:36:22.640Z,2.58
2019-05-03T17:38:55.093Z,2.50
2019-05-03T17:41:43.038Z,2.27
2019-05-03T17:44:16.421Z,2.20
2019-05-03T17:46:56.393Z,2.90
2019-05-03T17:49:25.580Z,2.60
2019-05-03T17:52:25.472Z,2.63
2019-05-03T17:55:11.982Z,2.37
2019-05-03T17:57:56.406Z,6.03
2019-05-03T18:00:39.457Z,3.60
2019-05-03T18:03:08.765Z,2.50
2019-05-03T18:05:53.065Z,2.05
2019-05-03T18:08:37.041Z,2.00
2019-05-03T18:11:11.412Z,2.30
2019-05-03T18:13:44.511Z,2.23
2019-05-03T18:16:13.493Z,2.10
2019-05-03T18:18:45.420Z,2.20
2019-05-03T18:21:18.889Z,2.43
2019-05-03T18:23:50.160Z,2.55
2019-05-03T18:26:18.970Z,2.77
2019-05-03T18:28:51.746Z,2.13
2019-05-03T18:31:25.061Z,2.13
2019-05-03T18:33:54.744Z,2.60
2019-05-03T18:36:25.748Z,2.50
2019-05-03T18:38:55.202Z,2.45
2019-05-03T18:41:25.499Z,2.70
2019-05-03T18:44:05.093Z,5.00
2019-05-03T18:46:37.845Z,3.47
2019-05-03T18:49:06.817Z,3.50
2019-05-03T18:51:35.766Z,2.90
2019-05-03T18:54:07.078Z,3.20
2019-05-03T18:56:35.218Z,2.83
2019-05-03T18:59:05.847Z,3.03
2019-05-03T19:01:34.898Z,3.07
2019-05-03T19:04:14.564Z,3.40
2019-05-03T19:06:45.024Z,3.13
2019-05-03T19:09:34.649Z,2.90
2019-05-03T19:12:16.914Z,3.17
2019-05-03T19:14:45.982Z,3.40
2019-05-03T19:17:35.426Z,3.30
2019-05-03T19:20:06.073Z,3.10
2019-05-03T19:22:34.880Z,3.65
2019-05-03T19:25:04.322Z,3.47
2019-05-03T19:27:34.677Z,5.87
2019-05-03T19:30:04.750Z,3.70
2019-05-03T19:32:35.803Z,3.20
2019-05-03T19:35:06.124Z,2.97
2019-05-03T19:37:35.041Z,2.90
2019-05-03T19:40:06.587Z,3.40
2019-05-03T19:42:35.395Z,2.97
2019-05-03T19:45:05.312Z,2.87
2019-05-03T19:47:35.354Z,3.07
2019-05-03T19:50:05.961Z,3.17
2019-05-03T19:52:38.818Z,5.83
2019-05-03T19:55:08.001Z,20.27
2019-05-03T19:57:40.365Z,26.73
2019-05-03T20:00:10.119Z,6.30
2019-05-03T20:03:00.864Z,4.70
2019-05-03T20:05:51.534Z,3.93
2019-05-03T20:08:24.639Z,8.20
2019-05-03T20:11:15.343Z,3.20
2019-05-03T20:13:46.216Z,4.70
2019-05-03T20:16:19.122Z,6.53
2019-05-03T20:18:49.532Z,3.10
2019-05-03T20:21:20.830Z,3.23
2019-05-03T20:23:50.836Z,3.70
2019-05-03T20:26:21.457Z,3.20
2019-05-03T20:28:50.214Z,3.00
2019-05-03T20:31:20.524Z,3.80
2019-05-03T20:33:49.781Z,3.40
2019-05-03T20:36:19.913Z,3.80
2019-05-03T20:38:49.524Z,3.52
2019-05-03T20:41:24.944Z,3.47
2019-05-03T20:44:05.355Z,3.47
2019-05-03T20:46:56.900Z,3.83
2019-05-03T20:49:27.700Z,3.60
2019-05-03T20:51:56.874Z,3.80
2019-05-03T20:54:29.488Z,3.93
2019-05-03T20:56:58.716Z,3.50
2019-05-03T20:59:28.025Z,4.07
2019-05-03T21:01:57.268Z,3.90
2019-05-03T21:04:28.594Z,4.47
2019-05-03T21:06:57.775Z,4.37
2019-05-03T21:09:29.821Z,4.20
2019-05-03T21:12:00.666Z,34.37
2019-05-03T21:14:36.052Z,5.33
2019-05-03T21:17:14.919Z,4.87
2019-05-03T21:19:49.585Z,4.10
2019-05-03T21:22:21.839Z,4.15
2019-05-03T21:25:02.988Z,4.00
2019-05-03T21:27:32.687Z,4.23
2019-05-03T21:30:01.675Z,3.73
2019-05-03T21:32:30.858Z,3.80
2019-05-03T21:35:00.033Z,3.50
2019-05-03T21:37:29.207Z,4.05
2019-05-03T21:39:58.495Z,4.13
2019-05-03T21:44:59.473Z,4.30
2019-05-03T21:47:54.599Z,4.33
2019-05-03T21:50:24.953Z,4.47
2019-05-03T21:53:05.847Z,4.37
2019-05-03T21:55:38.476Z,4.35
2019-05-03T21:58:09.333Z,4.90
2019-05-03T22:07:40.969Z,5.20
2019-05-03T22:10:10.494Z,4.80
2019-05-03T22:12:41.907Z,4.80
2019-05-03T22:15:37.089Z,4.60
2019-05-03T22:18:24.695Z,5.47
2019-05-03T22:21:26.975Z,5.23
2019-05-03T22:24:36.219Z,4.53
2019-05-03T22:27:09.566Z,4.92
2019-05-03T22:29:38.699Z,5.43
2019-05-03T22:32:08.263Z,5.77
2019-05-03T22:34:37.316Z,5.33
2019-05-03T22:37:10.080Z,5.17
2019-05-03T22:39:47.716Z,5.70
2019-05-03T22:42:16.898Z,6.33
2019-05-03T22:44:46.343Z,6.00
2019-05-03T22:47:16.057Z,5.30
2019-05-03T22:49:47.353Z,6.80
2019-05-03T22:52:16.804Z,6.28
2019-05-03T22:54:46.270Z,7.10
2019-05-03T22:57:18.373Z,6.87
2019-05-03T22:59:47.361Z,6.83
2019-05-03T23:02:17.744Z,7.67
2019-05-03T23:04:46.660Z,7.63
2019-05-03T23:07:16.868Z,7.10
2019-05-03T23:09:48.106Z,7.07
2019-05-03T23:12:17.066Z,6.70
2019-05-03T23:14:45.975Z,6.73
2019-05-03T23:17:15.111Z,6.83
2019-05-03T23:19:47.701Z,8.00
2019-05-03T23:22:26.012Z,8.83
2019-05-03T23:24:55.699Z,8.90
2019-05-03T23:27:25.151Z,8.67
2019-05-03T23:30:00.560Z,9.20
2019-05-03T23:33:03.796Z,8.57
2019-05-03T23:35:48.372Z,8.80
2019-05-03T23:38:25.029Z,9.07
2019-05-03T23:41:01.318Z,9.23
2019-05-03T23:43:53.891Z,10.13
2019-05-03T23:46:40.966Z,10.20
2019-05-03T23:49:16.482Z,9.80
2019-05-03T23:52:02.019Z,10.43
2019-05-03T23:54:40.730Z,9.87
2019-05-03T23:57:39.490Z,10.00
